sensor_id;sensor_type;location;lat;lon;timestamp;temperature;humidity
16243;DHT22;11719;51.052;6.982;2023-08-17T00:00:20;22.00;99.90
16243;DHT22;11719;51.052;6.982;2023-08-17T00:02:46;22.10;99.90
16243;DHT22;11719;51.052;6.982;2023-08-17T00:05:12;22.00;99.90
16243;DHT22;11719;51.052;6.982;2023-08-17T00:07:38;22.00;99.90
16243;DHT22;11719;51.052;6.982;2023-08-17T00:10:04;22.10;99.90
16243;DHT22;11719;51.052;6.982;2023-08-17T00:12:30;22.10;99.90
16243;DHT22;11719;51.052;6.982;2023-08-17T00:14:56;22.10;99.90
16243;DHT22;11719;51.052;6.982;2023-08-17T00:17:22;22.10;99.90
16243;DHT22;11719;51.052;6.982;2023-08-17T00:19:48;22.10;99.90
16243;DHT22;11719;51.052;6.982;2023-08-17T00:22:15;22.10;99.90
16243;DHT22;11719;51.052;6.982;2023-08-17T00:24:42;22.00;99.90
16243;DHT22;11719;51.052;6.982;2023-08-17T00:27:10;22.00;99.90
16243;DHT22;11719;51.052;6.982;2023-08-17T00:29:36;22.00;99.90
16243;DHT22;11719;51.052;6.982;2023-08-17T00:32:02;22.00;99.90
16243;DHT22;11719;51.052;6.982;2023-08-17T00:34:28;22.00;99.90
16243;DHT22;11719;51.052;6.982;2023-08-17T00:36:54;22.00;99.90
16243;DHT22;11719;51.052;6.982;2023-08-17T00:39:20;22.00;99.90
16243;DHT22;11719;51.052;6.982;2023-08-17T00:41:46;22.00;99.90
16243;DHT22;11719;51.052;6.982;2023-08-17T00:44:12;22.00;99.90
16243;DHT22;11719;51.052;6.982;2023-08-17T00:46:38;22.00;99.90
16243;DHT22;11719;51.052;6.982;2023-08-17T00:49:05;22.00;99.90
16243;DHT22;11719;51.052;6.982;2023-08-17T00:51:32;22.00;99.90
16243;DHT22;11719;51.052;6.982;2023-08-17T00:53:59;21.90;99.90
16243;DHT22;11719;51.052;6.982;2023-08-17T00:56:27;21.90;99.90
16243;DHT22;11719;51.052;6.982;2023-08-17T00:58:53;21.90;99.90
16243;DHT22;11719;51.052;6.982;2023-08-17T01:01:20;21.90;99.90
16243;DHT22;11719;51.052;6.982;2023-08-17T01:03:46;21.90;99.90
16243;DHT22;11719;51.052;6.982;2023-08-17T01:06:12;21.80;99.90
16243;DHT22;11719;51.052;6.982;2023-08-17T01:08:38;21.80;99.90
16243;DHT22;11719;51.052;6.982;2023-08-17T01:14:05;21.80;99.90
16243;DHT22;11719;51.052;6.982;2023-08-17T01:17:03;21.80;99.90
16243;DHT22;11719;51.052;6.982;2023-08-17T01:19:32;21.80;99.90
16243;DHT22;11719;51.052;6.982;2023-08-17T01:22:05;21.80;99.90
16243;DHT22;11719;51.052;6.982;2023-08-17T01:24:31;21.80;99.90
16243;DHT22;11719;51.052;6.982;2023-08-17T01:26:58;21.70;99.90
16243;DHT22;11719;51.052;6.982;2023-08-17T01:29:24;21.80;99.90
16243;DHT22;11719;51.052;6.982;2023-08-17T01:34:40;21.70;99.90
16243;DHT22;11719;51.052;6.982;2023-08-17T01:37:20;21.70;99.90
16243;DHT22;11719;51.052;6.982;2023-08-17T01:39:50;21.70;99.90
16243;DHT22;11719;51.052;6.982;2023-08-17T01:42:18;21.80;99.90
16243;DHT22;11719;51.052;6.982;2023-08-17T01:44:44;21.80;99.90
16243;DHT22;11719;51.052;6.982;2023-08-17T01:47:10;21.80;99.90
16243;DHT22;11719;51.052;6.982;2023-08-17T01:49:36;21.90;99.90
16243;DHT22;11719;51.052;6.982;2023-08-17T01:52:02;21.80;99.90
16243;DHT22;11719;51.052;6.982;2023-08-17T01:54:28;21.90;99.90
16243;DHT22;11719;51.052;6.982;2023-08-17T01:56:54;21.90;99.90
16243;DHT22;11719;51.052;6.982;2023-08-17T01:59:20;21.90;99.90
16243;DHT22;11719;51.052;6.982;2023-08-17T02:01:46;21.90;99.90
16243;DHT22;11719;51.052;6.982;2023-08-17T02:04:11;21.90;99.90
16243;DHT22;11719;51.052;6.982;2023-08-17T02:06:37;21.90;99.90
16243;DHT22;11719;51.052;6.982;2023-08-17T02:09:03;22.00;99.90
16243;DHT22;11719;51.052;6.982;2023-08-17T02:11:28;22.00;99.90
16243;DHT22;11719;51.052;6.982;2023-08-17T02:13:54;22.00;99.90
16243;DHT22;11719;51.052;6.982;2023-08-17T02:16:20;22.00;99.90
16243;DHT22;11719;51.052;6.982;2023-08-17T02:18:46;22.00;99.90
16243;DHT22;11719;51.052;6.982;2023-08-17T02:21:11;22.00;99.90
16243;DHT22;11719;51.052;6.982;2023-08-17T02:23:37;22.00;99.90
16243;DHT22;11719;51.052;6.982;2023-08-17T02:26:03;21.90;99.90
16243;DHT22;11719;51.052;6.982;2023-08-17T02:28:28;21.90;99.90
16243;DHT22;11719;51.052;6.982;2023-08-17T02:30:55;22.00;99.90
16243;DHT22;11719;51.052;6.982;2023-08-17T02:33:22;22.00;99.90
16243;DHT22;11719;51.052;6.982;2023-08-17T02:35:49;21.90;99.90
16243;DHT22;11719;51.052;6.982;2023-08-17T02:38:16;22.00;99.90
16243;DHT22;11719;51.052;6.982;2023-08-17T02:40:41;21.90;99.90
16243;DHT22;11719;51.052;6.982;2023-08-17T02:43:07;21.90;99.90
16243;DHT22;11719;51.052;6.982;2023-08-17T02:45:34;22.00;99.90
16243;DHT22;11719;51.052;6.982;2023-08-17T02:48:00;22.00;99.90
16243;DHT22;11719;51.052;6.982;2023-08-17T02:50:26;22.00;99.90
16243;DHT22;11719;51.052;6.982;2023-08-17T02:52:51;22.00;99.90
16243;DHT22;11719;51.052;6.982;2023-08-17T02:55:17;21.90;99.90
16243;DHT22;11719;51.052;6.982;2023-08-17T02:57:43;21.90;99.90
16243;DHT22;11719;51.052;6.982;2023-08-17T03:00:09;21.90;99.90
16243;DHT22;11719;51.052;6.982;2023-08-17T03:02:35;22.00;99.90
16243;DHT22;11719;51.052;6.982;2023-08-17T03:05:02;21.90;99.90
16243;DHT22;11719;51.052;6.982;2023-08-17T03:07:28;21.90;99.90
16243;DHT22;11719;51.052;6.982;2023-08-17T03:09:54;21.90;99.90
16243;DHT22;11719;51.052;6.982;2023-08-17T03:12:20;21.90;99.90
16243;DHT22;11719;51.052;6.982;2023-08-17T03:14:45;21.80;99.90
16243;DHT22;11719;51.052;6.982;2023-08-17T03:17:11;21.80;99.90
16243;DHT22;11719;51.052;6.982;2023-08-17T03:19:37;21.80;99.90
16243;DHT22;11719;51.052;6.982;2023-08-17T03:22:03;21.80;99.90
16243;DHT22;11719;51.052;6.982;2023-08-17T03:24:29;21.80;99.90
16243;DHT22;11719;51.052;6.982;2023-08-17T03:26:55;21.70;99.90
16243;DHT22;11719;51.052;6.982;2023-08-17T03:29:20;21.70;99.90
16243;DHT22;11719;51.052;6.982;2023-08-17T03:31:46;21.70;99.90
16243;DHT22;11719;51.052;6.982;2023-08-17T03:34:12;21.70;99.90
16243;DHT22;11719;51.052;6.982;2023-08-17T03:36:37;21.70;99.90
16243;DHT22;11719;51.052;6.982;2023-08-17T03:39:03;21.70;99.90
16243;DHT22;11719;51.052;6.982;2023-08-17T03:41:29;21.60;99.90
16243;DHT22;11719;51.052;6.982;2023-08-17T03:43:56;21.70;99.90
16243;DHT22;11719;51.052;6.982;2023-08-17T03:46:21;21.70;99.90
16243;DHT22;11719;51.052;6.982;2023-08-17T03:48:47;21.60;99.90
16243;DHT22;11719;51.052;6.982;2023-08-17T03:51:13;21.60;99.90
16243;DHT22;11719;51.052;6.982;2023-08-17T03:53:39;21.60;99.90
16243;DHT22;11719;51.052;6.982;2023-08-17T03:56:04;21.60;99.90
16243;DHT22;11719;51.052;6.982;2023-08-17T03:58:30;21.60;99.90
16243;DHT22;11719;51.052;6.982;2023-08-17T04:01:00;21.60;99.90
16243;DHT22;11719;51.052;6.982;2023-08-17T04:03:25;21.60;99.90
16243;DHT22;11719;51.052;6.982;2023-08-17T04:05:51;21.60;99.90
16243;DHT22;11719;51.052;6.982;2023-08-17T04:08:17;21.60;99.90
16243;DHT22;11719;51.052;6.982;2023-08-17T04:10:43;21.60;99.90
16243;DHT22;11719;51.052;6.982;2023-08-17T04:13:08;21.60;99.90
16243;DHT22;11719;51.052;6.982;2023-08-17T04:15:34;21.60;99.90
16243;DHT22;11719;51.052;6.982;2023-08-17T04:18:00;21.60;99.90
16243;DHT22;11719;51.052;6.982;2023-08-17T04:20:26;21.60;99.90
16243;DHT22;11719;51.052;6.982;2023-08-17T04:22:51;21.60;99.90
16243;DHT22;11719;51.052;6.982;2023-08-17T04:25:18;21.50;99.90
16243;DHT22;11719;51.052;6.982;2023-08-17T04:27:43;21.50;99.90
16243;DHT22;11719;51.052;6.982;2023-08-17T04:30:10;21.50;99.90
16243;DHT22;11719;51.052;6.982;2023-08-17T04:32:36;21.50;99.90
16243;DHT22;11719;51.052;6.982;2023-08-17T04:35:02;21.50;99.90
16243;DHT22;11719;51.052;6.982;2023-08-17T04:37:28;21.50;99.90
16243;DHT22;11719;51.052;6.982;2023-08-17T04:39:53;21.50;99.90
16243;DHT22;11719;51.052;6.982;2023-08-17T04:42:19;21.50;99.90
16243;DHT22;11719;51.052;6.982;2023-08-17T04:44:45;21.50;99.90
16243;DHT22;11719;51.052;6.982;2023-08-17T04:47:11;21.50;99.90
16243;DHT22;11719;51.052;6.982;2023-08-17T04:49:37;21.50;99.90
16243;DHT22;11719;51.052;6.982;2023-08-17T04:52:03;21.40;99.90
16243;DHT22;11719;51.052;6.982;2023-08-17T04:54:29;21.50;99.90
16243;DHT22;11719;51.052;6.982;2023-08-17T04:56:55;21.60;99.90
16243;DHT22;11719;51.052;6.982;2023-08-17T04:59:21;21.70;99.90
16243;DHT22;11719;51.052;6.982;2023-08-17T05:01:47;21.70;99.90
16243;DHT22;11719;51.052;6.982;2023-08-17T05:04:12;21.80;99.90
16243;DHT22;11719;51.052;6.982;2023-08-17T05:06:38;21.80;99.90
16243;DHT22;11719;51.052;6.982;2023-08-17T05:09:04;21.90;99.90
16243;DHT22;11719;51.052;6.982;2023-08-17T05:11:30;21.80;99.90
16243;DHT22;11719;51.052;6.982;2023-08-17T05:13:56;21.90;99.90
16243;DHT22;11719;51.052;6.982;2023-08-17T05:16:22;21.80;99.90
16243;DHT22;11719;51.052;6.982;2023-08-17T05:18:48;21.80;99.90
16243;DHT22;11719;51.052;6.982;2023-08-17T05:21:14;21.90;99.90
16243;DHT22;11719;51.052;6.982;2023-08-17T05:23:40;21.90;99.90
16243;DHT22;11719;51.052;6.982;2023-08-17T05:26:05;21.90;99.90
16243;DHT22;11719;51.052;6.982;2023-08-17T05:28:31;21.90;99.90
16243;DHT22;11719;51.052;6.982;2023-08-17T05:31:04;21.80;99.90
16243;DHT22;11719;51.052;6.982;2023-08-17T05:33:33;21.80;99.90
16243;DHT22;11719;51.052;6.982;2023-08-17T05:35:59;21.80;99.90
16243;DHT22;11719;51.052;6.982;2023-08-17T05:38:25;21.80;99.90
16243;DHT22;11719;51.052;6.982;2023-08-17T05:43:27;21.70;99.90
16243;DHT22;11719;51.052;6.982;2023-08-17T05:45:56;21.70;99.90
16243;DHT22;11719;51.052;6.982;2023-08-17T05:48:23;21.70;99.90
16243;DHT22;11719;51.052;6.982;2023-08-17T05:50:49;21.70;99.90
16243;DHT22;11719;51.052;6.982;2023-08-17T05:53:15;21.70;99.90
16243;DHT22;11719;51.052;6.982;2023-08-17T05:55:40;21.70;99.90
16243;DHT22;11719;51.052;6.982;2023-08-17T05:58:06;21.70;99.90
16243;DHT22;11719;51.052;6.982;2023-08-17T06:00:32;21.70;99.90
16243;DHT22;11719;51.052;6.982;2023-08-17T06:02:59;21.80;99.90
16243;DHT22;11719;51.052;6.982;2023-08-17T06:05:29;21.80;99.90
16243;DHT22;11719;51.052;6.982;2023-08-17T06:07:59;21.80;99.90
16243;DHT22;11719;51.052;6.982;2023-08-17T06:10:25;21.90;99.90
16243;DHT22;11719;51.052;6.982;2023-08-17T06:13:00;21.80;99.90
16243;DHT22;11719;51.052;6.982;2023-08-17T06:15:25;21.80;99.90
16243;DHT22;11719;51.052;6.982;2023-08-17T06:17:51;21.80;99.90
16243;DHT22;11719;51.052;6.982;2023-08-17T06:20:20;21.90;99.90
16243;DHT22;11719;51.052;6.982;2023-08-17T06:22:47;21.90;99.90
16243;DHT22;11719;51.052;6.982;2023-08-17T06:25:14;21.90;99.90
16243;DHT22;11719;51.052;6.982;2023-08-17T06:27:44;21.90;99.90
16243;DHT22;11719;51.052;6.982;2023-08-17T06:30:11;22.00;99.90
16243;DHT22;11719;51.052;6.982;2023-08-17T06:32:37;22.10;99.90
16243;DHT22;11719;51.052;6.982;2023-08-17T06:35:06;22.00;99.90
16243;DHT22;11719;51.052;6.982;2023-08-17T06:37:34;22.10;99.90
16243;DHT22;11719;51.052;6.982;2023-08-17T06:40:00;22.10;99.90
16243;DHT22;11719;51.052;6.982;2023-08-17T06:42:29;22.10;99.90
16243;DHT22;11719;51.052;6.982;2023-08-17T06:44:55;22.10;99.90
16243;DHT22;11719;51.052;6.982;2023-08-17T06:47:20;22.10;99.90
16243;DHT22;11719;51.052;6.982;2023-08-17T06:49:52;22.10;99.90
16243;DHT22;11719;51.052;6.982;2023-08-17T06:52:18;22.10;99.90
16243;DHT22;11719;51.052;6.982;2023-08-17T06:54:43;22.10;99.90
16243;DHT22;11719;51.052;6.982;2023-08-17T06:57:18;22.00;99.90
16243;DHT22;11719;51.052;6.982;2023-08-17T06:59:47;22.00;99.90
16243;DHT22;11719;51.052;6.982;2023-08-17T07:02:20;22.00;99.90
16243;DHT22;11719;51.052;6.982;2023-08-17T07:04:46;22.00;99.90
16243;DHT22;11719;51.052;6.982;2023-08-17T07:07:12;22.00;99.90
16243;DHT22;11719;51.052;6.982;2023-08-17T07:09:39;22.00;99.90
16243;DHT22;11719;51.052;6.982;2023-08-17T07:12:06;22.00;99.90
16243;DHT22;11719;51.052;6.982;2023-08-17T07:14:32;22.00;99.90
16243;DHT22;11719;51.052;6.982;2023-08-17T07:16:59;22.10;99.90
16243;DHT22;11719;51.052;6.982;2023-08-17T07:19:25;22.10;99.90
16243;DHT22;11719;51.052;6.982;2023-08-17T07:21:50;22.10;99.90
16243;DHT22;11719;51.052;6.982;2023-08-17T07:24:16;22.10;99.90
16243;DHT22;11719;51.052;6.982;2023-08-17T07:26:42;22.00;99.90
16243;DHT22;11719;51.052;6.982;2023-08-17T07:29:09;22.00;99.90
16243;DHT22;11719;51.052;6.982;2023-08-17T07:31:34;22.10;99.90
16243;DHT22;11719;51.052;6.982;2023-08-17T07:34:03;22.10;99.90
16243;DHT22;11719;51.052;6.982;2023-08-17T07:36:30;22.10;99.90
16243;DHT22;11719;51.052;6.982;2023-08-17T07:38:57;22.10;99.90
16243;DHT22;11719;51.052;6.982;2023-08-17T07:41:22;22.00;99.90
16243;DHT22;11719;51.052;6.982;2023-08-17T07:43:48;22.00;99.90
16243;DHT22;11719;51.052;6.982;2023-08-17T07:46:14;21.90;99.90
16243;DHT22;11719;51.052;6.982;2023-08-17T07:48:40;21.90;99.90
16243;DHT22;11719;51.052;6.982;2023-08-17T07:51:06;21.90;99.90
16243;DHT22;11719;51.052;6.982;2023-08-17T07:53:31;21.80;99.90
16243;DHT22;11719;51.052;6.982;2023-08-17T07:55:57;21.80;99.90
16243;DHT22;11719;51.052;6.982;2023-08-17T07:58:24;21.80;99.90
16243;DHT22;11719;51.052;6.982;2023-08-17T08:00:49;21.80;99.90
16243;DHT22;11719;51.052;6.982;2023-08-17T08:03:15;21.80;99.90
16243;DHT22;11719;51.052;6.982;2023-08-17T08:05:41;21.80;99.90
16243;DHT22;11719;51.052;6.982;2023-08-17T08:08:07;21.90;99.90
16243;DHT22;11719;51.052;6.982;2023-08-17T08:10:33;21.90;99.90
16243;DHT22;11719;51.052;6.982;2023-08-17T08:12:59;21.90;99.90
16243;DHT22;11719;51.052;6.982;2023-08-17T08:15:24;21.90;99.90
16243;DHT22;11719;51.052;6.982;2023-08-17T08:17:50;21.90;99.90
16243;DHT22;11719;51.052;6.982;2023-08-17T08:20:16;21.90;99.90
16243;DHT22;11719;51.052;6.982;2023-08-17T08:22:42;21.90;99.90
16243;DHT22;11719;51.052;6.982;2023-08-17T08:25:08;21.90;99.90
16243;DHT22;11719;51.052;6.982;2023-08-17T08:27:35;21.90;99.90
16243;DHT22;11719;51.052;6.982;2023-08-17T08:30:01;21.90;99.90
16243;DHT22;11719;51.052;6.982;2023-08-17T08:32:27;21.90;99.90
16243;DHT22;11719;51.052;6.982;2023-08-17T08:34:52;21.90;99.90
16243;DHT22;11719;51.052;6.982;2023-08-17T08:37:18;21.90;99.90
16243;DHT22;11719;51.052;6.982;2023-08-17T08:39:52;21.90;99.90
16243;DHT22;11719;51.052;6.982;2023-08-17T08:42:19;21.90;99.90
16243;DHT22;11719;51.052;6.982;2023-08-17T08:44:46;21.90;99.90
16243;DHT22;11719;51.052;6.982;2023-08-17T08:47:13;21.90;99.90
16243;DHT22;11719;51.052;6.982;2023-08-17T08:49:40;22.00;99.90
16243;DHT22;11719;51.052;6.982;2023-08-17T08:52:12;22.00;99.90
16243;DHT22;11719;51.052;6.982;2023-08-17T08:54:44;22.00;99.90
16243;DHT22;11719;51.052;6.982;2023-08-17T08:57:13;22.00;99.90
16243;DHT22;11719;51.052;6.982;2023-08-17T08:59:41;22.00;99.90
16243;DHT22;11719;51.052;6.982;2023-08-17T09:02:15;22.10;99.90
16243;DHT22;11719;51.052;6.982;2023-08-17T09:04:43;22.10;99.90
16243;DHT22;11719;51.052;6.982;2023-08-17T09:07:12;22.00;99.90
16243;DHT22;11719;51.052;6.982;2023-08-17T09:09:39;22.00;99.90
16243;DHT22;11719;51.052;6.982;2023-08-17T09:12:08;22.10;99.90
16243;DHT22;11719;51.052;6.982;2023-08-17T09:14:37;22.10;99.90
16243;DHT22;11719;51.052;6.982;2023-08-17T09:17:03;22.10;99.90
16243;DHT22;11719;51.052;6.982;2023-08-17T09:19:34;22.10;99.90
16243;DHT22;11719;51.052;6.982;2023-08-17T09:22:00;22.20;99.90
16243;DHT22;11719;51.052;6.982;2023-08-17T09:24:36;22.10;99.90
16243;DHT22;11719;51.052;6.982;2023-08-17T09:27:02;22.20;99.90
16243;DHT22;11719;51.052;6.982;2023-08-17T09:29:29;22.10;99.90
16243;DHT22;11719;51.052;6.982;2023-08-17T09:32:06;22.20;99.90
16243;DHT22;11719;51.052;6.982;2023-08-17T09:34:32;22.20;99.90
16243;DHT22;11719;51.052;6.982;2023-08-17T09:37:04;22.10;99.90
16243;DHT22;11719;51.052;6.982;2023-08-17T09:39:33;22.20;99.90
16243;DHT22;11719;51.052;6.982;2023-08-17T09:41:59;22.10;99.90
16243;DHT22;11719;51.052;6.982;2023-08-17T09:44:26;22.10;99.90
16243;DHT22;11719;51.052;6.982;2023-08-17T09:46:55;22.10;99.90
16243;DHT22;11719;51.052;6.982;2023-08-17T09:49:26;22.10;99.90
16243;DHT22;11719;51.052;6.982;2023-08-17T09:51:59;22.20;99.90
16243;DHT22;11719;51.052;6.982;2023-08-17T09:54:27;22.20;99.90
16243;DHT22;11719;51.052;6.982;2023-08-17T09:56:58;22.20;99.90
16243;DHT22;11719;51.052;6.982;2023-08-17T09:59:23;22.20;99.90
16243;DHT22;11719;51.052;6.982;2023-08-17T10:01:51;22.20;99.90
16243;DHT22;11719;51.052;6.982;2023-08-17T10:04:21;22.20;99.90
16243;DHT22;11719;51.052;6.982;2023-08-17T10:07:00;22.20;99.90
16243;DHT22;11719;51.052;6.982;2023-08-17T10:09:32;22.20;99.90
16243;DHT22;11719;51.052;6.982;2023-08-17T10:12:08;22.20;99.90
16243;DHT22;11719;51.052;6.982;2023-08-17T10:14:40;22.20;99.90
16243;DHT22;11719;51.052;6.982;2023-08-17T10:17:17;22.20;99.90
16243;DHT22;11719;51.052;6.982;2023-08-17T10:19:58;22.30;99.90
16243;DHT22;11719;51.052;6.982;2023-08-17T10:22:47;22.30;99.90
16243;DHT22;11719;51.052;6.982;2023-08-17T10:25:16;22.20;99.90
16243;DHT22;11719;51.052;6.982;2023-08-17T10:27:43;22.20;99.90
16243;DHT22;11719;51.052;6.982;2023-08-17T10:30:10;22.20;99.90
16243;DHT22;11719;51.052;6.982;2023-08-17T10:32:37;22.20;99.90
16243;DHT22;11719;51.052;6.982;2023-08-17T10:35:04;22.20;99.90
16243;DHT22;11719;51.052;6.982;2023-08-17T10:37:32;22.20;99.90
16243;DHT22;11719;51.052;6.982;2023-08-17T10:39:58;22.30;99.90
16243;DHT22;11719;51.052;6.982;2023-08-17T10:42:34;22.30;99.90
16243;DHT22;11719;51.052;6.982;2023-08-17T10:50:38;22.30;99.90
16243;DHT22;11719;51.052;6.982;2023-08-17T10:53:08;22.30;99.90
16243;DHT22;11719;51.052;6.982;2023-08-17T10:55:41;22.40;99.90
16243;DHT22;11719;51.052;6.982;2023-08-17T10:58:10;22.40;99.90
16243;DHT22;11719;51.052;6.982;2023-08-17T11:00:38;22.40;99.90
16243;DHT22;11719;51.052;6.982;2023-08-17T11:03:09;22.30;99.90
16243;DHT22;11719;51.052;6.982;2023-08-17T11:05:46;22.30;99.90
16243;DHT22;11719;51.052;6.982;2023-08-17T11:08:34;22.30;99.90
16243;DHT22;11719;51.052;6.982;2023-08-17T11:11:14;22.30;99.90
16243;DHT22;11719;51.052;6.982;2023-08-17T11:16:11;22.30;99.90
16243;DHT22;11719;51.052;6.982;2023-08-17T11:18:38;22.30;99.90
16243;DHT22;11719;51.052;6.982;2023-08-17T11:21:06;22.40;99.90
16243;DHT22;11719;51.052;6.982;2023-08-17T11:23:35;22.50;99.90
16243;DHT22;11719;51.052;6.982;2023-08-17T11:26:02;22.40;99.90
16243;DHT22;11719;51.052;6.982;2023-08-17T11:28:32;22.40;99.90
16243;DHT22;11719;51.052;6.982;2023-08-17T11:31:06;22.40;99.90
16243;DHT22;11719;51.052;6.982;2023-08-17T11:33:34;22.40;99.90
16243;DHT22;11719;51.052;6.982;2023-08-17T11:36:02;22.40;99.90
16243;DHT22;11719;51.052;6.982;2023-08-17T11:38:38;22.50;99.90
16243;DHT22;11719;51.052;6.982;2023-08-17T11:41:06;22.50;99.90
16243;DHT22;11719;51.052;6.982;2023-08-17T11:43:34;22.60;99.90
16243;DHT22;11719;51.052;6.982;2023-08-17T11:46:01;22.60;99.90
16243;DHT22;11719;51.052;6.982;2023-08-17T11:48:28;22.60;99.90
16243;DHT22;11719;51.052;6.982;2023-08-17T11:50:54;22.60;99.90
16243;DHT22;11719;51.052;6.982;2023-08-17T11:53:21;22.60;99.90
16243;DHT22;11719;51.052;6.982;2023-08-17T11:55:47;22.70;99.90
16243;DHT22;11719;51.052;6.982;2023-08-17T11:58:13;22.60;99.90
16243;DHT22;11719;51.052;6.982;2023-08-17T12:00:41;22.50;99.90
16243;DHT22;11719;51.052;6.982;2023-08-17T12:03:16;22.50;99.90
16243;DHT22;11719;51.052;6.982;2023-08-17T12:05:44;22.60;99.90
16243;DHT22;11719;51.052;6.982;2023-08-17T12:08:12;22.70;99.90
16243;DHT22;11719;51.052;6.982;2023-08-17T12:10:39;22.70;99.90
16243;DHT22;11719;51.052;6.982;2023-08-17T12:13:05;22.70;99.90
16243;DHT22;11719;51.052;6.982;2023-08-17T12:15:32;22.70;99.90
16243;DHT22;11719;51.052;6.982;2023-08-17T12:18:01;22.80;99.90
16243;DHT22;11719;51.052;6.982;2023-08-17T12:20:28;22.80;99.90
16243;DHT22;11719;51.052;6.982;2023-08-17T12:22:57;22.80;99.90
16243;DHT22;11719;51.052;6.982;2023-08-17T12:25:26;22.80;99.90
16243;DHT22;11719;51.052;6.982;2023-08-17T12:27:52;22.80;99.90
16243;DHT22;11719;51.052;6.982;2023-08-17T12:30:27;22.80;99.90
16243;DHT22;11719;51.052;6.982;2023-08-17T12:32:58;22.70;99.90
16243;DHT22;11719;51.052;6.982;2023-08-17T12:35:25;22.80;99.90
16243;DHT22;11719;51.052;6.982;2023-08-17T12:37:52;22.80;99.90
16243;DHT22;11719;51.052;6.982;2023-08-17T12:40:18;22.90;99.90
16243;DHT22;11719;51.052;6.982;2023-08-17T12:42:44;22.90;99.90
16243;DHT22;11719;51.052;6.982;2023-08-17T12:45:10;23.00;99.90
16243;DHT22;11719;51.052;6.982;2023-08-17T12:47:36;23.00;99.90
16243;DHT22;11719;51.052;6.982;2023-08-17T12:50:02;23.00;99.90
16243;DHT22;11719;51.052;6.982;2023-08-17T12:52:29;23.00;99.90
16243;DHT22;11719;51.052;6.982;2023-08-17T12:54:54;23.00;99.90
16243;DHT22;11719;51.052;6.982;2023-08-17T12:57:20;23.00;99.90
16243;DHT22;11719;51.052;6.982;2023-08-17T12:59:46;23.00;99.90
16243;DHT22;11719;51.052;6.982;2023-08-17T13:02:12;23.10;99.90
16243;DHT22;11719;51.052;6.982;2023-08-17T13:04:38;23.10;99.90
16243;DHT22;11719;51.052;6.982;2023-08-17T13:07:04;23.10;99.90
16243;DHT22;11719;51.052;6.982;2023-08-17T13:09:30;23.10;99.90
16243;DHT22;11719;51.052;6.982;2023-08-17T13:11:56;23.10;99.90
16243;DHT22;11719;51.052;6.982;2023-08-17T13:14:21;23.00;99.90
16243;DHT22;11719;51.052;6.982;2023-08-17T13:16:49;23.10;99.90
16243;DHT22;11719;51.052;6.982;2023-08-17T13:19:15;23.10;99.90
16243;DHT22;11719;51.052;6.982;2023-08-17T13:21:41;23.10;99.90
16243;DHT22;11719;51.052;6.982;2023-08-17T13:24:07;23.10;99.90
16243;DHT22;11719;51.052;6.982;2023-08-17T13:26:34;23.20;99.90
16243;DHT22;11719;51.052;6.982;2023-08-17T13:29:00;23.20;99.90
16243;DHT22;11719;51.052;6.982;2023-08-17T13:31:26;23.20;99.90
16243;DHT22;11719;51.052;6.982;2023-08-17T13:33:51;23.20;99.90
16243;DHT22;11719;51.052;6.982;2023-08-17T13:36:18;23.20;99.90
16243;DHT22;11719;51.052;6.982;2023-08-17T13:38:44;23.20;99.90
16243;DHT22;11719;51.052;6.982;2023-08-17T13:41:11;23.10;99.90
16243;DHT22;11719;51.052;6.982;2023-08-17T13:43:37;23.10;99.90
16243;DHT22;11719;51.052;6.982;2023-08-17T13:46:04;23.10;99.90
16243;DHT22;11719;51.052;6.982;2023-08-17T13:48:30;23.10;99.90
16243;DHT22;11719;51.052;6.982;2023-08-17T13:50:56;23.10;99.90
16243;DHT22;11719;51.052;6.982;2023-08-17T13:53:22;23.10;99.90
16243;DHT22;11719;51.052;6.982;2023-08-17T13:55:48;23.10;99.90
16243;DHT22;11719;51.052;6.982;2023-08-17T13:58:14;23.00;99.90
16243;DHT22;11719;51.052;6.982;2023-08-17T14:00:41;23.00;99.90
16243;DHT22;11719;51.052;6.982;2023-08-17T14:03:07;23.00;99.90
16243;DHT22;11719;51.052;6.982;2023-08-17T14:05:33;23.00;99.90
16243;DHT22;11719;51.052;6.982;2023-08-17T14:08:00;23.00;99.90
16243;DHT22;11719;51.052;6.982;2023-08-17T14:10:26;23.00;99.90
16243;DHT22;11719;51.052;6.982;2023-08-17T14:12:51;23.00;99.90
16243;DHT22;11719;51.052;6.982;2023-08-17T14:15:20;23.10;99.90
16243;DHT22;11719;51.052;6.982;2023-08-17T14:17:48;23.00;99.90
16243;DHT22;11719;51.052;6.982;2023-08-17T14:20:13;23.10;99.90
16243;DHT22;11719;51.052;6.982;2023-08-17T14:22:40;23.10;99.90
16243;DHT22;11719;51.052;6.982;2023-08-17T14:25:06;23.10;99.90
16243;DHT22;11719;51.052;6.982;2023-08-17T14:27:32;23.20;99.90
16243;DHT22;11719;51.052;6.982;2023-08-17T14:29:58;23.20;99.90
16243;DHT22;11719;51.052;6.982;2023-08-17T14:32:27;23.20;99.90
16243;DHT22;11719;51.052;6.982;2023-08-17T14:34:54;23.10;99.90
16243;DHT22;11719;51.052;6.982;2023-08-17T14:37:20;23.00;99.90
16243;DHT22;11719;51.052;6.982;2023-08-17T14:39:46;23.00;99.90
16243;DHT22;11719;51.052;6.982;2023-08-17T14:42:12;23.10;99.90
16243;DHT22;11719;51.052;6.982;2023-08-17T14:44:38;23.10;99.90
16243;DHT22;11719;51.052;6.982;2023-08-17T14:47:04;23.00;99.90
16243;DHT22;11719;51.052;6.982;2023-08-17T14:49:30;23.00;99.90
16243;DHT22;11719;51.052;6.982;2023-08-17T14:51:55;22.80;99.90
16243;DHT22;11719;51.052;6.982;2023-08-17T14:54:21;22.70;99.90
16243;DHT22;11719;51.052;6.982;2023-08-17T14:56:47;22.80;99.90
16243;DHT22;11719;51.052;6.982;2023-08-17T14:59:13;22.90;99.90
16243;DHT22;11719;51.052;6.982;2023-08-17T15:01:39;23.00;99.90
16243;DHT22;11719;51.052;6.982;2023-08-17T15:04:05;23.20;99.90
16243;DHT22;11719;51.052;6.982;2023-08-17T15:06:31;23.30;99.90
16243;DHT22;11719;51.052;6.982;2023-08-17T15:08:57;23.60;99.90
16243;DHT22;11719;51.052;6.982;2023-08-17T15:11:23;24.10;99.90
16243;DHT22;11719;51.052;6.982;2023-08-17T15:13:48;24.20;99.90
16243;DHT22;11719;51.052;6.982;2023-08-17T15:16:14;24.10;99.90
16243;DHT22;11719;51.052;6.982;2023-08-17T15:18:40;24.50;99.90
16243;DHT22;11719;51.052;6.982;2023-08-17T15:21:06;24.40;99.90
16243;DHT22;11719;51.052;6.982;2023-08-17T15:23:32;24.30;99.90
16243;DHT22;11719;51.052;6.982;2023-08-17T15:25:58;24.20;99.90
16243;DHT22;11719;51.052;6.982;2023-08-17T15:28:24;24.10;99.90
16243;DHT22;11719;51.052;6.982;2023-08-17T15:31:03;23.80;99.90
16243;DHT22;11719;51.052;6.982;2023-08-17T15:33:34;23.90;99.90
16243;DHT22;11719;51.052;6.982;2023-08-17T15:36:00;23.70;99.90
16243;DHT22;11719;51.052;6.982;2023-08-17T15:38:26;23.60;99.90
16243;DHT22;11719;51.052;6.982;2023-08-17T15:40:52;23.50;99.90
16243;DHT22;11719;51.052;6.982;2023-08-17T15:43:18;23.50;99.90
16243;DHT22;11719;51.052;6.982;2023-08-17T15:45:44;23.30;99.90